sensor_id;sensor_type;location;lat;lon;timestamp;P1;durP1;ratioP1;P2;durP2;ratioP2
61840;SDS011;47773;53.174;6.614;2023-07-13T00:02:23;22.67;;;4.35;;
61840;SDS011;47773;53.174;6.614;2023-07-13T00:04:49;27.30;;;3.92;;
61840;SDS011;47773;53.174;6.614;2023-07-13T00:07:15;18.63;;;3.70;;
61840;SDS011;47773;53.174;6.614;2023-07-13T00:09:44;15.40;;;4.15;;
61840;SDS011;47773;53.174;6.614;2023-07-13T00:12:21;16.80;;;3.67;;
61840;SDS011;47773;53.174;6.614;2023-07-13T00:14:49;24.15;;;4.38;;
61840;SDS011;47773;53.174;6.614;2023-07-13T00:17:15;22.23;;;3.92;;
61840;SDS011;47773;53.174;6.614;2023-07-13T00:19:41;20.63;;;4.32;;
61840;SDS011;47773;53.174;6.614;2023-07-13T00:22:07;25.10;;;4.45;;
61840;SDS011;47773;53.174;6.614;2023-07-13T00:24:32;18.27;;;4.10;;
61840;SDS011;47773;53.174;6.614;2023-07-13T00:26:58;20.95;;;4.80;;
61840;SDS011;47773;53.174;6.614;2023-07-13T00:29:25;22.65;;;4.22;;
61840;SDS011;47773;53.174;6.614;2023-07-13T00:31:51;14.32;;;4.05;;
61840;SDS011;47773;53.174;6.614;2023-07-13T00:34:17;22.25;;;4.55;;
61840;SDS011;47773;53.174;6.614;2023-07-13T00:36:43;22.13;;;5.05;;
61840;SDS011;47773;53.174;6.614;2023-07-13T00:39:08;25.42;;;4.22;;
61840;SDS011;47773;53.174;6.614;2023-07-13T00:41:34;23.48;;;4.65;;
61840;SDS011;47773;53.174;6.614;2023-07-13T00:44:02;26.02;;;4.63;;
61840;SDS011;47773;53.174;6.614;2023-07-13T00:46:29;17.48;;;4.03;;
61840;SDS011;47773;53.174;6.614;2023-07-13T00:48:58;17.30;;;4.35;;
61840;SDS011;47773;53.174;6.614;2023-07-13T00:51:30;19.50;;;4.82;;
61840;SDS011;47773;53.174;6.614;2023-07-13T00:53:59;22.05;;;4.15;;
61840;SDS011;47773;53.174;6.614;2023-07-13T00:56:28;15.43;;;4.57;;
61840;SDS011;47773;53.174;6.614;2023-07-13T00:58:56;23.27;;;4.63;;
61840;SDS011;47773;53.174;6.614;2023-07-13T01:01:24;19.73;;;4.72;;
61840;SDS011;47773;53.174;6.614;2023-07-13T01:03:50;22.63;;;4.43;;
61840;SDS011;47773;53.174;6.614;2023-07-13T01:06:15;23.30;;;4.22;;
61840;SDS011;47773;53.174;6.614;2023-07-13T01:08:42;24.45;;;4.38;;
61840;SDS011;47773;53.174;6.614;2023-07-13T01:11:08;26.83;;;4.55;;
61840;SDS011;47773;53.174;6.614;2023-07-13T01:13:34;29.63;;;4.78;;
61840;SDS011;47773;53.174;6.614;2023-07-13T01:16:01;23.38;;;4.32;;
61840;SDS011;47773;53.174;6.614;2023-07-13T01:18:36;17.85;;;4.40;;
61840;SDS011;47773;53.174;6.614;2023-07-13T01:21:03;24.83;;;4.10;;
61840;SDS011;47773;53.174;6.614;2023-07-13T01:23:30;27.67;;;4.40;;
61840;SDS011;47773;53.174;6.614;2023-07-13T01:25:57;21.45;;;4.38;;
61840;SDS011;47773;53.174;6.614;2023-07-13T01:28:24;17.85;;;4.35;;
61840;SDS011;47773;53.174;6.614;2023-07-13T01:30:52;24.63;;;4.40;;
61840;SDS011;47773;53.174;6.614;2023-07-13T01:33:19;23.35;;;3.85;;
61840;SDS011;47773;53.174;6.614;2023-07-13T01:35:45;20.30;;;4.20;;
61840;SDS011;47773;53.174;6.614;2023-07-13T01:38:13;19.70;;;3.70;;
61840;SDS011;47773;53.174;6.614;2023-07-13T01:40:40;18.60;;;3.70;;
61840;SDS011;47773;53.174;6.614;2023-07-13T01:43:06;33.20;;;4.50;;
61840;SDS011;47773;53.174;6.614;2023-07-13T01:45:32;28.60;;;4.38;;
61840;SDS011;47773;53.174;6.614;2023-07-13T01:47:57;21.80;;;3.92;;
61840;SDS011;47773;53.174;6.614;2023-07-13T01:50:23;16.65;;;3.65;;
61840;SDS011;47773;53.174;6.614;2023-07-13T01:52:50;25.40;;;4.38;;
61840;SDS011;47773;53.174;6.614;2023-07-13T01:55:15;22.95;;;4.53;;
61840;SDS011;47773;53.174;6.614;2023-07-13T01:57:41;15.88;;;3.83;;
61840;SDS011;47773;53.174;6.614;2023-07-13T02:00:08;25.13;;;4.55;;
61840;SDS011;47773;53.174;6.614;2023-07-13T02:02:35;20.98;;;3.50;;
61840;SDS011;47773;53.174;6.614;2023-07-13T02:05:01;22.95;;;4.32;;
61840;SDS011;47773;53.174;6.614;2023-07-13T02:07:27;17.85;;;4.55;;
61840;SDS011;47773;53.174;6.614;2023-07-13T02:09:52;27.30;;;4.20;;
61840;SDS011;47773;53.174;6.614;2023-07-13T02:12:19;18.52;;;3.60;;
61840;SDS011;47773;53.174;6.614;2023-07-13T02:14:44;18.77;;;3.40;;
61840;SDS011;47773;53.174;6.614;2023-07-13T02:17:10;21.10;;;3.80;;
61840;SDS011;47773;53.174;6.614;2023-07-13T02:19:37;21.92;;;3.58;;
61840;SDS011;47773;53.174;6.614;2023-07-13T02:22:03;21.55;;;3.80;;
61840;SDS011;47773;53.174;6.614;2023-07-13T02:24:29;23.67;;;4.50;;
61840;SDS011;47773;53.174;6.614;2023-07-13T02:26:55;25.65;;;4.05;;
61840;SDS011;47773;53.174;6.614;2023-07-13T02:29:21;16.77;;;3.38;;
61840;SDS011;47773;53.174;6.614;2023-07-13T02:31:46;30.80;;;4.00;;
61840;SDS011;47773;53.174;6.614;2023-07-13T02:34:12;16.83;;;4.30;;
61840;SDS011;47773;53.174;6.614;2023-07-13T02:36:38;20.92;;;3.97;;
61840;SDS011;47773;53.174;6.614;2023-07-13T02:39:04;18.30;;;3.17;;
61840;SDS011;47773;53.174;6.614;2023-07-13T02:41:31;26.30;;;3.45;;
61840;SDS011;47773;53.174;6.614;2023-07-13T02:43:57;27.13;;;4.07;;
61840;SDS011;47773;53.174;6.614;2023-07-13T02:46:32;21.80;;;4.05;;
61840;SDS011;47773;53.174;6.614;2023-07-13T02:48:59;18.70;;;3.90;;
61840;SDS011;47773;53.174;6.614;2023-07-13T02:51:25;13.10;;;3.50;;
61840;SDS011;47773;53.174;6.614;2023-07-13T02:53:50;18.48;;;4.25;;
61840;SDS011;47773;53.174;6.614;2023-07-13T02:56:17;17.83;;;3.75;;
61840;SDS011;47773;53.174;6.614;2023-07-13T02:58:47;18.80;;;4.15;;
61840;SDS011;47773;53.174;6.614;2023-07-13T03:01:13;16.92;;;3.67;;
61840;SDS011;47773;53.174;6.614;2023-07-13T03:03:43;23.08;;;3.80;;
61840;SDS011;47773;53.174;6.614;2023-07-13T03:06:11;22.63;;;4.32;;
61840;SDS011;47773;53.174;6.614;2023-07-13T03:08:36;22.58;;;3.78;;
61840;SDS011;47773;53.174;6.614;2023-07-13T03:11:03;20.67;;;3.90;;
61840;SDS011;47773;53.174;6.614;2023-07-13T03:13:31;19.02;;;3.83;;
61840;SDS011;47773;53.174;6.614;2023-07-13T03:15:57;23.60;;;3.88;;
61840;SDS011;47773;53.174;6.614;2023-07-13T03:18:23;22.17;;;3.72;;
61840;SDS011;47773;53.174;6.614;2023-07-13T03:20:51;18.00;;;3.42;;
61840;SDS011;47773;53.174;6.614;2023-07-13T03:23:18;19.20;;;4.43;;
61840;SDS011;47773;53.174;6.614;2023-07-13T03:25:45;21.38;;;3.50;;
61840;SDS011;47773;53.174;6.614;2023-07-13T03:28:11;17.27;;;3.33;;
61840;SDS011;47773;53.174;6.614;2023-07-13T03:30:38;16.08;;;3.13;;
61840;SDS011;47773;53.174;6.614;2023-07-13T03:33:04;14.45;;;2.92;;
61840;SDS011;47773;53.174;6.614;2023-07-13T03:35:30;15.27;;;3.45;;
61840;SDS011;47773;53.174;6.614;2023-07-13T03:37:57;12.93;;;2.70;;
61840;SDS011;47773;53.174;6.614;2023-07-13T03:40:24;21.27;;;3.08;;
61840;SDS011;47773;53.174;6.614;2023-07-13T03:42:51;14.65;;;2.80;;
61840;SDS011;47773;53.174;6.614;2023-07-13T03:45:17;20.63;;;3.17;;
61840;SDS011;47773;53.174;6.614;2023-07-13T03:47:44;16.67;;;3.17;;
61840;SDS011;47773;53.174;6.614;2023-07-13T03:50:10;16.27;;;3.45;;
61840;SDS011;47773;53.174;6.614;2023-07-13T03:52:36;15.98;;;4.07;;
61840;SDS011;47773;53.174;6.614;2023-07-13T03:55:02;17.98;;;3.58;;
61840;SDS011;47773;53.174;6.614;2023-07-13T03:57:28;21.33;;;3.85;;
61840;SDS011;47773;53.174;6.614;2023-07-13T03:59:53;21.35;;;3.88;;
61840;SDS011;47773;53.174;6.614;2023-07-13T04:02:20;22.10;;;3.97;;
61840;SDS011;47773;53.174;6.614;2023-07-13T04:04:46;24.08;;;4.20;;
61840;SDS011;47773;53.174;6.614;2023-07-13T04:07:12;15.77;;;3.65;;
61840;SDS011;47773;53.174;6.614;2023-07-13T04:09:38;19.95;;;3.92;;
61840;SDS011;47773;53.174;6.614;2023-07-13T04:12:04;19.80;;;3.95;;
61840;SDS011;47773;53.174;6.614;2023-07-13T04:14:30;21.08;;;3.92;;
61840;SDS011;47773;53.174;6.614;2023-07-13T04:16:55;13.80;;;3.22;;
61840;SDS011;47773;53.174;6.614;2023-07-13T04:19:22;19.50;;;4.20;;
61840;SDS011;47773;53.174;6.614;2023-07-13T04:21:48;19.20;;;4.05;;
61840;SDS011;47773;53.174;6.614;2023-07-13T04:24:13;24.50;;;4.40;;
61840;SDS011;47773;53.174;6.614;2023-07-13T04:26:39;21.52;;;4.40;;
61840;SDS011;47773;53.174;6.614;2023-07-13T04:29:05;18.45;;;4.13;;
61840;SDS011;47773;53.174;6.614;2023-07-13T04:31:32;15.68;;;3.40;;
61840;SDS011;47773;53.174;6.614;2023-07-13T04:33:58;28.35;;;4.40;;
61840;SDS011;47773;53.174;6.614;2023-07-13T04:36:24;22.42;;;4.03;;
61840;SDS011;47773;53.174;6.614;2023-07-13T04:38:53;17.48;;;4.38;;
61840;SDS011;47773;53.174;6.614;2023-07-13T04:41:20;19.15;;;4.30;;
61840;SDS011;47773;53.174;6.614;2023-07-13T04:43:47;16.33;;;4.43;;
61840;SDS011;47773;53.174;6.614;2023-07-13T04:46:15;15.45;;;3.55;;
61840;SDS011;47773;53.174;6.614;2023-07-13T04:48:45;17.65;;;3.88;;
61840;SDS011;47773;53.174;6.614;2023-07-13T04:51:11;18.77;;;4.15;;
61840;SDS011;47773;53.174;6.614;2023-07-13T04:53:37;18.13;;;3.78;;
61840;SDS011;47773;53.174;6.614;2023-07-13T04:56:03;18.67;;;3.70;;
61840;SDS011;47773;53.174;6.614;2023-07-13T04:58:29;17.45;;;3.72;;
61840;SDS011;47773;53.174;6.614;2023-07-13T05:01:05;16.42;;;3.65;;
61840;SDS011;47773;53.174;6.614;2023-07-13T05:03:31;20.80;;;3.70;;
61840;SDS011;47773;53.174;6.614;2023-07-13T05:05:58;20.83;;;3.88;;
61840;SDS011;47773;53.174;6.614;2023-07-13T05:08:29;16.63;;;4.13;;
61840;SDS011;47773;53.174;6.614;2023-07-13T05:10:55;20.40;;;4.13;;
61840;SDS011;47773;53.174;6.614;2023-07-13T05:13:21;22.50;;;3.85;;
61840;SDS011;47773;53.174;6.614;2023-07-13T05:15:54;22.42;;;3.88;;
61840;SDS011;47773;53.174;6.614;2023-07-13T05:18:21;19.58;;;3.92;;
61840;SDS011;47773;53.174;6.614;2023-07-13T05:20:54;20.42;;;3.88;;
61840;SDS011;47773;53.174;6.614;2023-07-13T05:23:27;16.08;;;3.47;;
61840;SDS011;47773;53.174;6.614;2023-07-13T05:25:54;17.30;;;3.88;;
61840;SDS011;47773;53.174;6.614;2023-07-13T05:28:20;20.08;;;3.63;;
61840;SDS011;47773;53.174;6.614;2023-07-13T05:30:47;18.63;;;3.45;;
61840;SDS011;47773;53.174;6.614;2023-07-13T05:33:14;17.52;;;3.70;;
61840;SDS011;47773;53.174;6.614;2023-07-13T05:35:39;21.00;;;4.25;;
61840;SDS011;47773;53.174;6.614;2023-07-13T05:38:05;23.42;;;3.83;;
61840;SDS011;47773;53.174;6.614;2023-07-13T05:40:31;21.02;;;4.00;;
61840;SDS011;47773;53.174;6.614;2023-07-13T05:42:57;17.40;;;3.60;;
61840;SDS011;47773;53.174;6.614;2023-07-13T05:45:23;21.77;;;4.07;;
61840;SDS011;47773;53.174;6.614;2023-07-13T05:47:49;22.63;;;3.30;;
61840;SDS011;47773;53.174;6.614;2023-07-13T05:50:15;25.85;;;4.18;;
61840;SDS011;47773;53.174;6.614;2023-07-13T05:52:40;20.33;;;3.53;;
61840;SDS011;47773;53.174;6.614;2023-07-13T05:55:06;15.20;;;3.55;;
61840;SDS011;47773;53.174;6.614;2023-07-13T05:57:32;19.13;;;4.10;;
61840;SDS011;47773;53.174;6.614;2023-07-13T05:59:58;19.88;;;3.28;;
61840;SDS011;47773;53.174;6.614;2023-07-13T06:02:24;17.40;;;3.30;;
61840;SDS011;47773;53.174;6.614;2023-07-13T06:04:51;15.48;;;2.72;;
61840;SDS011;47773;53.174;6.614;2023-07-13T06:07:17;15.50;;;3.05;;
61840;SDS011;47773;53.174;6.614;2023-07-13T06:09:42;18.35;;;3.10;;
61840;SDS011;47773;53.174;6.614;2023-07-13T06:12:08;13.75;;;3.30;;
61840;SDS011;47773;53.174;6.614;2023-07-13T06:14:34;17.10;;;3.03;;
61840;SDS011;47773;53.174;6.614;2023-07-13T06:17:00;18.98;;;3.35;;
61840;SDS011;47773;53.174;6.614;2023-07-13T06:19:26;15.65;;;3.05;;
61840;SDS011;47773;53.174;6.614;2023-07-13T06:21:52;22.13;;;3.70;;
61840;SDS011;47773;53.174;6.614;2023-07-13T06:24:17;23.10;;;3.20;;
61840;SDS011;47773;53.174;6.614;2023-07-13T06:26:43;20.25;;;3.03;;
61840;SDS011;47773;53.174;6.614;2023-07-13T06:29:09;16.42;;;2.97;;
61840;SDS011;47773;53.174;6.614;2023-07-13T06:31:34;19.52;;;3.58;;
61840;SDS011;47773;53.174;6.614;2023-07-13T06:34:00;16.63;;;3.40;;
61840;SDS011;47773;53.174;6.614;2023-07-13T06:36:26;10.77;;;2.67;;
61840;SDS011;47773;53.174;6.614;2023-07-13T06:38:52;14.75;;;3.40;;
61840;SDS011;47773;53.174;6.614;2023-07-13T06:41:17;24.13;;;3.63;;
61840;SDS011;47773;53.174;6.614;2023-07-13T06:43:43;21.48;;;3.30;;
61840;SDS011;47773;53.174;6.614;2023-07-13T06:46:09;14.98;;;3.10;;
61840;SDS011;47773;53.174;6.614;2023-07-13T06:48:35;14.10;;;3.20;;
61840;SDS011;47773;53.174;6.614;2023-07-13T06:51:01;23.17;;;3.60;;
61840;SDS011;47773;53.174;6.614;2023-07-13T06:53:27;20.88;;;3.35;;
61840;SDS011;47773;53.174;6.614;2023-07-13T06:55:53;16.55;;;3.35;;
61840;SDS011;47773;53.174;6.614;2023-07-13T06:58:19;17.58;;;3.28;;
61840;SDS011;47773;53.174;6.614;2023-07-13T07:00:45;16.27;;;2.80;;
61840;SDS011;47773;53.174;6.614;2023-07-13T07:03:12;17.55;;;3.00;;
61840;SDS011;47773;53.174;6.614;2023-07-13T07:05:37;18.25;;;2.83;;
61840;SDS011;47773;53.174;6.614;2023-07-13T07:08:03;16.42;;;2.88;;
61840;SDS011;47773;53.174;6.614;2023-07-13T07:10:29;28.85;;;2.95;;
61840;SDS011;47773;53.174;6.614;2023-07-13T07:12:56;10.95;;;2.78;;
61840;SDS011;47773;53.174;6.614;2023-07-13T07:15:22;8.70;;;2.60;;
61840;SDS011;47773;53.174;6.614;2023-07-13T07:17:48;18.33;;;3.03;;
61840;SDS011;47773;53.174;6.614;2023-07-13T07:20:14;15.38;;;2.75;;
61840;SDS011;47773;53.174;6.614;2023-07-13T07:22:40;18.73;;;3.20;;
61840;SDS011;47773;53.174;6.614;2023-07-13T07:25:06;12.30;;;2.80;;
61840;SDS011;47773;53.174;6.614;2023-07-13T07:27:32;13.73;;;3.20;;
61840;SDS011;47773;53.174;6.614;2023-07-13T07:29:58;11.38;;;2.88;;
61840;SDS011;47773;53.174;6.614;2023-07-13T07:32:24;15.65;;;2.88;;
61840;SDS011;47773;53.174;6.614;2023-07-13T07:34:50;9.35;;;2.85;;
61840;SDS011;47773;53.174;6.614;2023-07-13T07:37:16;19.13;;;3.55;;
61840;SDS011;47773;53.174;6.614;2023-07-13T07:39:42;15.68;;;3.42;;
61840;SDS011;47773;53.174;6.614;2023-07-13T07:42:08;8.82;;;3.10;;
61840;SDS011;47773;53.174;6.614;2023-07-13T07:44:34;16.52;;;3.50;;
61840;SDS011;47773;53.174;6.614;2023-07-13T07:47:00;16.30;;;3.67;;
61840;SDS011;47773;53.174;6.614;2023-07-13T07:49:26;14.80;;;3.75;;
61840;SDS011;47773;53.174;6.614;2023-07-13T07:51:52;18.92;;;3.70;;
61840;SDS011;47773;53.174;6.614;2023-07-13T07:54:18;17.42;;;3.67;;
61840;SDS011;47773;53.174;6.614;2023-07-13T07:56:43;15.32;;;3.40;;
61840;SDS011;47773;53.174;6.614;2023-07-13T07:59:09;11.82;;;3.45;;
61840;SDS011;47773;53.174;6.614;2023-07-13T08:01:35;14.25;;;3.65;;
61840;SDS011;47773;53.174;6.614;2023-07-13T08:04:02;13.95;;;3.53;;
61840;SDS011;47773;53.174;6.614;2023-07-13T08:06:27;12.77;;;2.83;;
61840;SDS011;47773;53.174;6.614;2023-07-13T08:08:54;9.80;;;2.47;;
61840;SDS011;47773;53.174;6.614;2023-07-13T08:11:20;13.20;;;2.75;;
61840;SDS011;47773;53.174;6.614;2023-07-13T08:13:46;7.60;;;2.05;;
61840;SDS011;47773;53.174;6.614;2023-07-13T08:16:12;7.20;;;2.05;;
61840;SDS011;47773;53.174;6.614;2023-07-13T08:18:38;9.05;;;2.17;;
61840;SDS011;47773;53.174;6.614;2023-07-13T08:21:07;8.10;;;2.20;;
61840;SDS011;47773;53.174;6.614;2023-07-13T08:23:33;7.05;;;2.30;;
61840;SDS011;47773;53.174;6.614;2023-07-13T08:26:00;7.80;;;2.10;;
61840;SDS011;47773;53.174;6.614;2023-07-13T08:28:27;9.80;;;2.30;;
61840;SDS011;47773;53.174;6.614;2023-07-13T08:30:53;8.07;;;2.40;;
61840;SDS011;47773;53.174;6.614;2023-07-13T08:33:19;5.45;;;2.38;;
61840;SDS011;47773;53.174;6.614;2023-07-13T08:35:49;9.63;;;2.67;;
61840;SDS011;47773;53.174;6.614;2023-07-13T08:38:16;10.43;;;2.72;;
61840;SDS011;47773;53.174;6.614;2023-07-13T08:40:43;10.07;;;2.72;;
61840;SDS011;47773;53.174;6.614;2023-07-13T08:43:13;10.88;;;2.58;;
61840;SDS011;47773;53.174;6.614;2023-07-13T08:48:11;11.88;;;2.83;;
61840;SDS011;47773;53.174;6.614;2023-07-13T08:50:48;13.35;;;2.33;;
61840;SDS011;47773;53.174;6.614;2023-07-13T08:53:14;12.60;;;2.88;;
61840;SDS011;47773;53.174;6.614;2023-07-13T08:55:41;9.80;;;2.75;;
61840;SDS011;47773;53.174;6.614;2023-07-13T08:58:14;13.77;;;3.05;;
61840;SDS011;47773;53.174;6.614;2023-07-13T09:00:50;7.57;;;2.58;;
61840;SDS011;47773;53.174;6.614;2023-07-13T09:03:23;9.75;;;2.85;;
61840;SDS011;47773;53.174;6.614;2023-07-13T09:05:55;10.30;;;2.58;;
61840;SDS011;47773;53.174;6.614;2023-07-13T09:13:57;11.75;;;2.65;;
61840;SDS011;47773;53.174;6.614;2023-07-13T09:16:31;7.07;;;2.42;;
61840;SDS011;47773;53.174;6.614;2023-07-13T09:19:01;9.88;;;2.60;;
61840;SDS011;47773;53.174;6.614;2023-07-13T09:21:31;15.02;;;3.00;;
61840;SDS011;47773;53.174;6.614;2023-07-13T09:24:03;12.02;;;2.85;;
61840;SDS011;47773;53.174;6.614;2023-07-13T09:27:19;13.07;;;2.80;;
61840;SDS011;47773;53.174;6.614;2023-07-13T09:29:51;12.02;;;2.90;;
61840;SDS011;47773;53.174;6.614;2023-07-13T09:32:23;12.50;;;3.35;;
61840;SDS011;47773;53.174;6.614;2023-07-13T09:34:52;14.32;;;3.40;;
61840;SDS011;47773;53.174;6.614;2023-07-13T09:37:20;10.70;;;3.08;;
61840;SDS011;47773;53.174;6.614;2023-07-13T09:39:48;10.55;;;3.08;;
61840;SDS011;47773;53.174;6.614;2023-07-13T09:42:16;14.20;;;3.30;;
61840;SDS011;47773;53.174;6.614;2023-07-13T09:47:17;11.00;;;3.53;;
61840;SDS011;47773;53.174;6.614;2023-07-13T09:49:49;12.27;;;3.25;;
61840;SDS011;47773;53.174;6.614;2023-07-13T09:52:26;11.88;;;3.65;;
61840;SDS011;47773;53.174;6.614;2023-07-13T09:54:53;15.88;;;3.83;;
61840;SDS011;47773;53.174;6.614;2023-07-13T09:57:26;11.73;;;3.80;;
61840;SDS011;47773;53.174;6.614;2023-07-13T09:59:54;12.52;;;4.00;;
61840;SDS011;47773;53.174;6.614;2023-07-13T10:02:31;15.70;;;4.45;;
61840;SDS011;47773;53.174;6.614;2023-07-13T10:07:39;12.00;;;4.10;;
61840;SDS011;47773;53.174;6.614;2023-07-13T10:10:18;9.10;;;3.72;;
61840;SDS011;47773;53.174;6.614;2023-07-13T10:12:46;12.73;;;3.42;;
61840;SDS011;47773;53.174;6.614;2023-07-13T10:15:17;14.02;;;3.90;;
61840;SDS011;47773;53.174;6.614;2023-07-13T10:17:45;15.18;;;3.53;;
61840;SDS011;47773;53.174;6.614;2023-07-13T10:20:12;9.93;;;3.53;;
61840;SDS011;47773;53.174;6.614;2023-07-13T10:25:35;12.18;;;4.20;;
61840;SDS011;47773;53.174;6.614;2023-07-13T10:28:19;14.95;;;4.20;;
61840;SDS011;47773;53.174;6.614;2023-07-13T10:31:00;13.68;;;4.10;;
61840;SDS011;47773;53.174;6.614;2023-07-13T10:33:27;14.30;;;4.07;;
61840;SDS011;47773;53.174;6.614;2023-07-13T10:35:55;15.00;;;4.47;;
61840;SDS011;47773;53.174;6.614;2023-07-13T10:38:34;15.30;;;4.28;;
61840;SDS011;47773;53.174;6.614;2023-07-13T10:41:03;9.88;;;3.88;;
61840;SDS011;47773;53.174;6.614;2023-07-13T10:43:36;18.20;;;4.15;;
61840;SDS011;47773;53.174;6.614;2023-07-13T10:46:16;13.38;;;4.80;;
61840;SDS011;47773;53.174;6.614;2023-07-13T10:48:44;16.13;;;4.15;;
61840;SDS011;47773;53.174;6.614;2023-07-13T10:51:14;11.98;;;4.38;;
61840;SDS011;47773;53.174;6.614;2023-07-13T10:53:42;14.23;;;4.05;;
61840;SDS011;47773;53.174;6.614;2023-07-13T10:56:42;13.95;;;4.43;;
61840;SDS011;47773;53.174;6.614;2023-07-13T11:02:21;13.75;;;2.85;;
61840;SDS011;47773;53.174;6.614;2023-07-13T11:04:53;9.13;;;2.17;;
61840;SDS011;47773;53.174;6.614;2023-07-13T11:07:24;7.50;;;1.80;;
61840;SDS011;47773;53.174;6.614;2023-07-13T11:09:57;6.00;;;1.83;;
61840;SDS011;47773;53.174;6.614;2023-07-13T11:22:53;7.45;;;2.15;;
61840;SDS011;47773;53.174;6.614;2023-07-13T11:25:38;5.90;;;1.88;;
61840;SDS011;47773;53.174;6.614;2023-07-13T11:30:38;10.65;;;2.25;;
61840;SDS011;47773;53.174;6.614;2023-07-13T11:38:40;15.43;;;2.45;;
61840;SDS011;47773;53.174;6.614;2023-07-13T11:43:43;7.75;;;1.83;;
61840;SDS011;47773;53.174;6.614;2023-07-13T11:46:14;9.68;;;2.00;;
61840;SDS011;47773;53.174;6.614;2023-07-13T11:48:41;11.43;;;2.33;;
61840;SDS011;47773;53.174;6.614;2023-07-13T11:51:13;12.07;;;2.60;;
61840;SDS011;47773;53.174;6.614;2023-07-13T11:53:52;9.43;;;2.20;;
61840;SDS011;47773;53.174;6.614;2023-07-13T11:56:19;11.55;;;2.17;;
61840;SDS011;47773;53.174;6.614;2023-07-13T11:58:48;9.30;;;2.40;;
61840;SDS011;47773;53.174;6.614;2023-07-13T12:01:18;8.45;;;2.45;;
61840;SDS011;47773;53.174;6.614;2023-07-13T12:03:47;8.70;;;2.13;;
61840;SDS011;47773;53.174;6.614;2023-07-13T12:06:47;5.80;;;2.45;;
61840;SDS011;47773;53.174;6.614;2023-07-13T12:09:12;6.43;;;1.95;;
61840;SDS011;47773;53.174;6.614;2023-07-13T12:11:41;9.90;;;2.47;;
61840;SDS011;47773;53.174;6.614;2023-07-13T12:14:15;8.02;;;2.70;;
61840;SDS011;47773;53.174;6.614;2023-07-13T12:16:41;7.95;;;2.80;;
61840;SDS011;47773;53.174;6.614;2023-07-13T12:19:14;11.05;;;2.50;;
61840;SDS011;47773;53.174;6.614;2023-07-13T12:21:46;5.07;;;1.85;;
61840;SDS011;47773;53.174;6.614;2023-07-13T12:24:14;8.27;;;2.50;;
61840;SDS011;47773;53.174;6.614;2023-07-13T12:26:44;10.40;;;2.22;;
61840;SDS011;47773;53.174;6.614;2023-07-13T12:29:15;9.93;;;2.58;;
61840;SDS011;47773;53.174;6.614;2023-07-13T12:31:43;12.35;;;2.58;;
61840;SDS011;47773;53.174;6.614;2023-07-13T12:34:21;15.73;;;2.70;;
61840;SDS011;47773;53.174;6.614;2023-07-13T12:39:22;11.27;;;2.80;;
61840;SDS011;47773;53.174;6.614;2023-07-13T12:41:51;10.68;;;2.95;;
61840;SDS011;47773;53.174;6.614;2023-07-13T12:44:19;12.93;;;2.92;;
61840;SDS011;47773;53.174;6.614;2023-07-13T12:46:52;11.13;;;3.10;;
61840;SDS011;47773;53.174;6.614;2023-07-13T12:49:22;15.77;;;2.70;;
61840;SDS011;47773;53.174;6.614;2023-07-13T12:51:58;9.85;;;2.67;;
61840;SDS011;47773;53.174;6.614;2023-07-13T12:54:25;14.03;;;2.53;;
61840;SDS011;47773;53.174;6.614;2023-07-13T12:56:52;13.80;;;2.50;;
61840;SDS011;47773;53.174;6.614;2023-07-13T12:59:22;10.80;;;2.72;;
61840;SDS011;47773;53.174;6.614;2023-07-13T13:01:48;11.20;;;2.67;;
61840;SDS011;47773;53.174;6.614;2023-07-13T13:04:15;11.35;;;3.10;;
61840;SDS011;47773;53.174;6.614;2023-07-13T13:06:42;10.98;;;2.88;;
61840;SDS011;47773;53.174;6.614;2023-07-13T13:09:11;12.50;;;2.97;;
61840;SDS011;47773;53.174;6.614;2023-07-13T13:11:39;15.43;;;2.72;;
61840;SDS011;47773;53.174;6.614;2023-07-13T13:14:06;17.40;;;3.45;;
61840;SDS011;47773;53.174;6.614;2023-07-13T13:16:34;17.08;;;3.25;;
61840;SDS011;47773;53.174;6.614;2023-07-13T13:19:12;14.88;;;3.10;;
61840;SDS011;47773;53.174;6.614;2023-07-13T13:21:40;17.85;;;2.80;;
61840;SDS011;47773;53.174;6.614;2023-07-13T13:24:14;12.30;;;3.15;;
61840;SDS011;47773;53.174;6.614;2023-07-13T13:26:42;11.23;;;2.50;;
61840;SDS011;47773;53.174;6.614;2023-07-13T13:29:31;9.20;;;3.00;;
61840;SDS011;47773;53.174;6.614;2023-07-13T13:31:56;13.43;;;3.15;;
61840;SDS011;47773;53.174;6.614;2023-07-13T13:34:22;15.40;;;3.97;;
61840;SDS011;47773;53.174;6.614;2023-07-13T13:36:50;11.55;;;3.00;;
61840;SDS011;47773;53.174;6.614;2023-07-13T13:39:23;13.50;;;3.15;;
61840;SDS011;47773;53.174;6.614;2023-07-13T13:41:58;22.83;;;3.38;;
61840;SDS011;47773;53.174;6.614;2023-07-13T13:44:24;16.48;;;3.55;;
61840;SDS011;47773;53.174;6.614;2023-07-13T13:46:51;19.30;;;3.63;;
61840;SDS011;47773;53.174;6.614;2023-07-13T13:49:23;13.27;;;3.00;;
61840;SDS011;47773;53.174;6.614;2023-07-13T13:51:51;10.52;;;3.30;;
61840;SDS011;47773;53.174;6.614;2023-07-13T13:54:17;13.13;;;3.00;;
61840;SDS011;47773;53.174;6.614;2023-07-13T13:56:45;13.38;;;3.15;;
61840;SDS011;47773;53.174;6.614;2023-07-13T13:59:14;13.05;;;3.38;;
61840;SDS011;47773;53.174;6.614;2023-07-13T14:01:40;19.00;;;3.15;;
61840;SDS011;47773;53.174;6.614;2023-07-13T14:04:17;13.63;;;3.58;;
61840;SDS011;47773;53.174;6.614;2023-07-13T14:06:45;14.48;;;3.60;;
61840;SDS011;47773;53.174;6.614;2023-07-13T14:09:12;15.32;;;3.58;;
61840;SDS011;47773;53.174;6.614;2023-07-13T14:11:39;14.70;;;3.80;;
61840;SDS011;47773;53.174;6.614;2023-07-13T14:14:20;12.43;;;3.78;;
61840;SDS011;47773;53.174;6.614;2023-07-13T14:16:48;16.70;;;3.60;;
61840;SDS011;47773;53.174;6.614;2023-07-13T14:19:18;21.67;;;3.97;;
61840;SDS011;47773;53.174;6.614;2023-07-13T14:21:45;20.42;;;3.58;;
61840;SDS011;47773;53.174;6.614;2023-07-13T14:24:12;16.85;;;3.40;;
61840;SDS011;47773;53.174;6.614;2023-07-13T14:26:39;20.92;;;3.53;;
61840;SDS011;47773;53.174;6.614;2023-07-13T14:29:16;20.05;;;3.60;;
61840;SDS011;47773;53.174;6.614;2023-07-13T14:31:44;15.50;;;4.10;;
61840;SDS011;47773;53.174;6.614;2023-07-13T14:34:10;19.08;;;3.85;;
61840;SDS011;47773;53.174;6.614;2023-07-13T14:36:38;17.08;;;3.88;;
61840;SDS011;47773;53.174;6.614;2023-07-13T14:39:17;21.33;;;3.70;;
61840;SDS011;47773;53.174;6.614;2023-07-13T14:41:49;12.98;;;3.83;;
61840;SDS011;47773;53.174;6.614;2023-07-13T14:44:17;14.55;;;3.92;;
61840;SDS011;47773;53.174;6.614;2023-07-13T14:46:45;13.98;;;3.35;;
61840;SDS011;47773;53.174;6.614;2023-07-13T14:49:21;15.65;;;3.10;;
61840;SDS011;47773;53.174;6.614;2023-07-13T14:51:48;15.57;;;3.08;;
61840;SDS011;47773;53.174;6.614;2023-07-13T14:54:14;17.85;;;3.70;;
61840;SDS011;47773;53.174;6.614;2023-07-13T14:56:40;14.68;;;3.65;;
61840;SDS011;47773;53.174;6.614;2023-07-13T14:59:06;14.45;;;3.85;;
61840;SDS011;47773;53.174;6.614;2023-07-13T15:01:33;18.55;;;4.05;;
61840;SDS011;47773;53.174;6.614;2023-07-13T15:04:00;13.82;;;3.47;;
61840;SDS011;47773;53.174;6.614;2023-07-13T15:06:27;10.70;;;3.33;;
61840;SDS011;47773;53.174;6.614;2023-07-13T15:08:54;15.40;;;3.92;;
61840;SDS011;47773;53.174;6.614;2023-07-13T15:11:20;16.65;;;3.35;;
61840;SDS011;47773;53.174;6.614;2023-07-13T15:13:47;20.30;;;3.55;;
61840;SDS011;47773;53.174;6.614;2023-07-13T15:16:15;11.18;;;3.40;;
61840;SDS011;47773;53.174;6.614;2023-07-13T15:18:43;17.25;;;3.35;;
61840;SDS011;47773;53.174;6.614;2023-07-13T15:21:10;13.43;;;3.38;;
61840;SDS011;47773;53.174;6.614;2023-07-13T15:23:41;19.23;;;3.77;;
61840;SDS011;47773;53.174;6.614;2023-07-13T15:26:11;16.48;;;3.60;;